createdAt,value
2022-10-17T00:04:16.258Z,13.50
2022-10-17T00:09:17.999Z,13.52
2022-10-17T00:14:19.635Z,13.47
2022-10-17T00:19:21.277Z,13.44
2022-10-17T00:24:22.870Z,13.47
2022-10-17T00:29:24.508Z,13.50
2022-10-17T00:34:28.830Z,13.47
2022-10-17T00:39:31.636Z,13.35
2022-10-17T00:44:33.523Z,13.35
2022-10-17T00:49:38.308Z,13.33
2022-10-17T00:54:43.588Z,13.32
2022-10-17T00:59:51.649Z,13.29
2022-10-17T01:04:56.455Z,13.29
2022-10-17T01:09:58.219Z,13.27
2022-10-17T01:15:19.160Z,13.24
2022-10-17T01:20:29.927Z,13.24
2022-10-17T01:25:55.971Z,13.23
2022-10-17T01:31:13.541Z,13.26
2022-10-17T01:36:44.986Z,13.29
2022-10-17T01:41:47.731Z,13.32
2022-10-17T01:52:03.422Z,13.30
2022-10-17T01:57:13.056Z,13.28
2022-10-17T02:02:17.941Z,13.29
2022-10-17T02:07:21.099Z,13.29
2022-10-17T02:12:53.950Z,13.31
2022-10-17T02:18:20.510Z,13.34
2022-10-17T02:23:54.126Z,13.34
2022-10-17T02:29:01.338Z,13.35
2022-10-17T02:34:30.534Z,13.35
2022-10-17T02:39:36.527Z,13.35
2022-10-17T02:44:42.577Z,13.37
2022-10-17T02:49:53.736Z,13.38
2022-10-17T02:55:09.323Z,13.43
2022-10-17T03:00:19.068Z,13.47
2022-10-17T03:05:31.302Z,13.47
2022-10-17T03:11:05.240Z,13.50
2022-10-17T03:16:09.022Z,13.47
2022-10-17T03:21:15.064Z,13.43
2022-10-17T03:26:19.816Z,13.44
2022-10-17T03:31:25.727Z,13.47
2022-10-17T03:36:32.352Z,13.46
2022-10-17T03:41:38.706Z,13.49
2022-10-17T03:46:43.137Z,13.53
2022-10-17T03:51:47.740Z,13.56
2022-10-17T03:56:52.550Z,13.57
2022-10-17T04:01:57.290Z,13.62
2022-10-17T04:06:59.380Z,13.62
2022-10-17T04:12:02.672Z,13.65
2022-10-17T04:17:05.765Z,13.66
2022-10-17T04:22:09.226Z,13.66
2022-10-17T04:27:14.315Z,13.63
2022-10-17T04:32:21.375Z,13.67
2022-10-17T04:37:32.997Z,13.70
2022-10-17T04:42:39.645Z,13.69
2022-10-17T04:47:42.302Z,13.75
2022-10-17T04:52:44.806Z,13.78
2022-10-17T04:57:49.569Z,13.84
2022-10-17T05:03:08.043Z,13.88
2022-10-17T05:08:12.382Z,13.89
2022-10-17T05:13:20.704Z,13.93
2022-10-17T05:18:26.486Z,13.93
2022-10-17T05:23:34.398Z,13.93
2022-10-17T05:28:39.645Z,13.97
2022-10-17T05:33:46.373Z,13.99
2022-10-17T05:49:44.978Z,14.00
2022-10-17T05:54:49.398Z,14.03
2022-10-17T05:59:55.339Z,14.01
2022-10-17T06:04:57.898Z,14.01
2022-10-17T06:09:59.875Z,13.98
2022-10-17T06:15:01.921Z,13.98
2022-10-17T06:20:05.902Z,13.97
2022-10-17T06:25:08.290Z,14.01
2022-10-17T06:30:10.529Z,14.01
2022-10-17T06:35:13.028Z,14.01
2022-10-17T06:40:17.392Z,14.03
2022-10-17T06:45:20.277Z,14.04
2022-10-17T06:50:30.091Z,14.02
2022-10-17T06:55:41.145Z,14.02
2022-10-17T07:00:52.179Z,14.03
2022-10-17T07:05:55.715Z,14.03
2022-10-17T07:10:58.299Z,14.05
2022-10-17T07:16:02.191Z,14.06
2022-10-17T07:21:08.731Z,14.10
2022-10-17T07:26:14.201Z,14.11
2022-10-17T07:31:19.085Z,14.10
2022-10-17T07:36:20.968Z,14.11
2022-10-17T07:41:23.706Z,14.14
2022-10-17T07:46:26.037Z,14.16
2022-10-17T07:51:30.402Z,14.19
2022-10-17T07:56:32.463Z,14.23
2022-10-17T08:01:34.376Z,14.28
2022-10-17T08:06:36.325Z,14.31
2022-10-17T08:11:38.139Z,14.35
2022-10-17T08:16:43.259Z,14.39
2022-10-17T08:21:47.077Z,14.43
2022-10-17T08:26:51.662Z,14.45
2022-10-17T08:31:58.677Z,14.49
2022-10-17T08:37:06.856Z,14.51
2022-10-17T08:42:08.659Z,14.52
2022-10-17T08:47:15.762Z,14.56
2022-10-17T08:52:37.632Z,14.57
2022-10-17T08:57:39.185Z,14.56
2022-10-17T09:03:15.093Z,14.58
2022-10-17T09:08:28.792Z,14.60
2022-10-17T09:13:55.482Z,14.62
2022-10-17T09:19:12.491Z,14.65
2022-10-17T09:24:28.690Z,14.66
2022-10-17T09:29:35.463Z,14.66
2022-10-17T09:34:39.795Z,14.66
2022-10-17T09:39:42.834Z,14.68
2022-10-17T09:44:57.217Z,14.67
2022-10-17T09:49:58.859Z,14.66
2022-10-17T09:55:26.992Z,14.61
2022-10-17T10:00:32.750Z,14.56
2022-10-17T10:05:34.517Z,14.53
2022-10-17T10:10:36.256Z,14.51
2022-10-17T10:15:41.338Z,14.52
2022-10-17T10:20:46.783Z,14.53
2022-10-17T10:26:12.476Z,14.54
2022-10-17T10:31:14.273Z,14.47
2022-10-17T10:36:15.891Z,14.46
2022-10-17T10:41:17.522Z,14.42
2022-10-17T10:46:20.858Z,14.37
2022-10-17T10:51:47.420Z,14.39
2022-10-17T10:56:56.513Z,14.29
2022-10-17T11:02:25.173Z,14.33
2022-10-17T11:07:35.053Z,14.35
2022-10-17T11:12:48.611Z,14.40
2022-10-17T11:18:23.216Z,14.40
2022-10-17T11:23:34.462Z,14.39
2022-10-17T11:28:36.139Z,14.36
2022-10-17T11:33:56.929Z,14.43
2022-10-17T11:39:22.955Z,14.52
2022-10-17T11:44:38.050Z,14.65
2022-10-17T11:49:51.320Z,14.71
2022-10-17T11:54:59.497Z,14.70
2022-10-17T12:00:27.909Z,14.69
2022-10-17T12:05:38.837Z,14.66
2022-10-17T12:10:52.414Z,14.68
2022-10-17T12:15:58.701Z,14.69
2022-10-17T12:21:01.094Z,14.72
2022-10-17T12:26:06.494Z,14.71
2022-10-17T12:31:17.491Z,14.77
2022-10-17T12:36:21.152Z,14.80
2022-10-17T12:41:37.914Z,14.80
2022-10-17T12:46:42.388Z,14.80
2022-10-17T12:52:05.887Z,14.82
2022-10-17T12:57:35.287Z,14.87
2022-10-17T13:02:37.014Z,14.89
2022-10-17T13:07:42.941Z,14.92
2022-10-17T13:12:44.860Z,14.92
2022-10-17T13:17:55.854Z,14.96
2022-10-17T13:23:01.179Z,14.97
2022-10-17T13:28:07.614Z,14.97
2022-10-17T13:33:30.976Z,15.02
2022-10-17T13:38:36.650Z,15.02
2022-10-17T13:43:40.731Z,15.06
2022-10-17T13:48:43.579Z,15.11
2022-10-17T13:53:45.313Z,15.18
2022-10-17T13:58:50.716Z,15.25
2022-10-17T14:04:03.390Z,15.29
2022-10-17T14:09:28.899Z,15.36
2022-10-17T14:14:46.116Z,15.42
2022-10-17T14:20:34.001Z,15.44
2022-10-17T14:25:30.775Z,15.42
2022-10-17T14:30:55.815Z,15.46
2022-10-17T14:36:00.916Z,15.43
2022-10-17T14:41:40.912Z,15.42
2022-10-17T14:46:31.125Z,15.38
2022-10-17T14:51:44.699Z,15.38
2022-10-17T14:56:56.000Z,15.35
2022-10-17T15:01:57.623Z,15.40
2022-10-17T15:06:59.290Z,15.35
2022-10-17T15:12:02.678Z,15.30
2022-10-17T15:17:12.719Z,15.29
2022-10-17T15:22:16.197Z,15.27
2022-10-17T15:27:19.759Z,15.23
2022-10-17T15:32:21.548Z,15.18
2022-10-17T15:37:26.243Z,15.23
2022-10-17T15:42:29.531Z,15.20
2022-10-17T15:47:36.162Z,15.17
2022-10-17T15:52:37.760Z,15.05
2022-10-17T15:57:43.091Z,15.03
2022-10-17T16:02:45.275Z,15.03
2022-10-17T16:07:47.794Z,14.95
2022-10-17T16:12:54.726Z,14.93
2022-10-17T16:17:57.895Z,14.91
2022-10-17T16:23:03.074Z,14.94
2022-10-17T16:28:06.254Z,14.94
2022-10-17T16:33:08.175Z,14.90
2022-10-17T16:38:09.765Z,14.86
2022-10-17T16:43:13.398Z,14.84
2022-10-17T16:48:15.198Z,14.82
2022-10-17T16:53:17.038Z,14.83
2022-10-17T16:58:18.807Z,14.81
2022-10-17T17:03:20.667Z,14.77
2022-10-17T17:08:22.343Z,14.75
2022-10-17T17:13:24.098Z,14.68
2022-10-17T17:18:26.058Z,14.67
2022-10-17T17:23:28.955Z,14.68
2022-10-17T17:28:31.954Z,14.63
2022-10-17T17:33:33.842Z,14.59
2022-10-17T17:38:36.603Z,14.57
2022-10-17T17:43:38.430Z,14.58
2022-10-17T17:48:41.625Z,14.56
2022-10-17T17:53:43.708Z,14.56
2022-10-17T17:58:47.655Z,14.54
2022-10-17T18:03:54.299Z,14.56
2022-10-17T18:08:59.406Z,14.55
2022-10-17T18:14:34.440Z,14.62
2022-10-17T18:19:36.949Z,14.53
2022-10-17T18:24:39.094Z,14.54
2022-10-17T18:29:42.205Z,14.54
2022-10-17T18:34:43.987Z,14.51
2022-10-17T18:39:49.359Z,14.52
2022-10-17T18:44:51.470Z,14.46
2022-10-17T18:49:54.887Z,14.48
2022-10-17T18:54:56.705Z,14.46
2022-10-17T18:59:58.496Z,14.39
2022-10-17T19:05:02.972Z,14.35
2022-10-17T19:10:04.829Z,14.36
2022-10-17T19:15:06.858Z,14.37
2022-10-17T19:20:09.332Z,14.30
2022-10-17T19:25:10.950Z,14.29
2022-10-17T19:30:17.858Z,14.30
2022-10-17T19:35:21.563Z,14.28
2022-10-17T19:40:25.477Z,14.29
2022-10-17T19:45:27.413Z,14.28
2022-10-17T19:50:29.305Z,14.22
2022-10-17T19:55:33.422Z,14.19
2022-10-17T20:00:35.421Z,14.22
2022-10-17T20:05:38.370Z,14.19
2022-10-17T20:10:40.330Z,14.17
2022-10-17T20:15:42.436Z,14.13
2022-10-17T20:20:44.417Z,14.19
2022-10-17T20:25:46.172Z,14.18
2022-10-17T20:30:48.354Z,14.23
2022-10-17T20:35:50.791Z,14.27
2022-10-17T20:40:54.274Z,14.25
2022-10-17T20:46:03.615Z,14.18
2022-10-17T20:51:11.634Z,14.18
2022-10-17T20:56:22.901Z,14.18
2022-10-17T21:01:25.924Z,14.08
2022-10-17T21:06:27.812Z,14.12
2022-10-17T21:11:30.224Z,14.10
2022-10-17T21:16:34.519Z,14.06
2022-10-17T21:21:41.022Z,14.05
2022-10-17T21:26:45.029Z,14.11
2022-10-17T21:31:47.074Z,14.06
2022-10-17T21:36:49.888Z,14.07
2022-10-17T21:41:52.907Z,14.05
2022-10-17T21:46:55.468Z,13.97
2022-10-17T21:51:57.912Z,13.87
2022-10-17T21:57:00.032Z,13.85
2022-10-17T22:02:02.075Z,13.93
2022-10-17T22:07:04.832Z,13.95
2022-10-17T22:12:06.896Z,13.95
2022-10-17T22:17:08.538Z,13.95
2022-10-17T22:22:10.328Z,13.91
2022-10-17T22:27:12.004Z,13.89
2022-10-17T22:32:16.316Z,13.85
2022-10-17T22:37:20.435Z,13.83
2022-10-17T22:47:30.057Z,13.78
2022-10-17T22:52:32.213Z,13.79
2022-10-17T22:57:34.088Z,13.77
2022-10-17T23:02:36.104Z,13.74
2022-10-17T23:07:37.782Z,13.72
2022-10-17T23:12:39.379Z,13.70
2022-10-17T23:17:40.979Z,13.65
2022-10-17T23:22:42.576Z,13.64
2022-10-17T23:27:44.195Z,13.63
2022-10-17T23:32:45.882Z,13.61
2022-10-17T23:37:47.468Z,13.60
2022-10-17T23:42:49.164Z,13.58
2022-10-17T23:47:50.830Z,13.56
2022-10-17T23:52:52.586Z,13.54
2022-10-17T23:57:54.184Z,13.53
